sensor_id;sensor_type;location;lat;lon;timestamp;pressure;altitude;pressure_sealevel;temperature;humidity
52105;BME280;38103;42.776;23.112;2022-08-11T00:02:31;94147.38;;;16.47;93.37
52105;BME280;38103;42.776;23.112;2022-08-11T00:05:02;94146.84;;;16.39;93.54
52105;BME280;38103;42.776;23.112;2022-08-11T00:07:28;94153.28;;;16.49;93.06
52105;BME280;38103;42.776;23.112;2022-08-11T00:09:54;94139.94;;;16.54;92.96
52105;BME280;38103;42.776;23.112;2022-08-11T00:12:20;94124.72;;;16.39;93.14
52105;BME280;38103;42.776;23.112;2022-08-11T00:14:55;94147.66;;;16.40;93.29
52105;BME280;38103;42.776;23.112;2022-08-11T00:17:26;94140.47;;;16.35;93.62
52105;BME280;38103;42.776;23.112;2022-08-11T00:20:00;94139.41;;;16.31;93.00
52105;BME280;38103;42.776;23.112;2022-08-11T00:22:26;94138.06;;;16.34;93.21
52105;BME280;38103;42.776;23.112;2022-08-11T00:24:54;94143.94;;;16.30;93.15
52105;BME280;38103;42.776;23.112;2022-08-11T00:27:28;94135.66;;;16.37;92.69
52105;BME280;38103;42.776;23.112;2022-08-11T00:29:56;94139.41;;;16.41;92.15
52105;BME280;38103;42.776;23.112;2022-08-11T00:32:22;94142.59;;;16.33;92.69
52105;BME280;38103;42.776;23.112;2022-08-11T00:34:48;94142.06;;;16.36;92.12
52105;BME280;38103;42.776;23.112;2022-08-11T00:37:21;94146.84;;;16.45;91.33
52105;BME280;38103;42.776;23.112;2022-08-11T00:39:52;94147.38;;;16.47;90.74
52105;BME280;38103;42.776;23.112;2022-08-11T00:45:24;94136.72;;;16.15;91.94
52105;BME280;38103;42.776;23.112;2022-08-11T00:59:29;94122.81;;;16.03;91.78
52105;BME280;38103;42.776;23.112;2022-08-11T01:02:16;94127.31;;;15.86;93.01
52105;BME280;38103;42.776;23.112;2022-08-11T01:26:19;94121.09;;;15.55;95.30
52105;BME280;38103;42.776;23.112;2022-08-11T01:40:45;94113.00;;;15.34;96.81
52105;BME280;38103;42.776;23.112;2022-08-11T01:47:08;94072.94;;;14.97;97.82
52105;BME280;38103;42.776;23.112;2022-08-11T01:50:19;94110.88;;;15.30;97.27
52105;BME280;38103;42.776;23.112;2022-08-11T02:04:29;94115.38;;;15.19;98.39
52105;BME280;38103;42.776;23.112;2022-08-11T02:07:12;94034.72;;;14.70;98.29
52105;BME280;38103;42.776;23.112;2022-08-11T02:12:56;94108.75;;;15.27;97.04
52105;BME280;38103;42.776;23.112;2022-08-11T02:15:35;94088.41;;;15.05;98.96
52105;BME280;38103;42.776;23.112;2022-08-11T02:18:20;94109.25;;;15.24;98.76
52105;BME280;38103;42.776;23.112;2022-08-11T02:21:01;94101.56;;;15.28;97.67
52105;BME280;38103;42.776;23.112;2022-08-11T02:26:25;94119.47;;;15.48;95.58
52105;BME280;38103;42.776;23.112;2022-08-11T02:29:16;94119.16;;;15.34;95.67
52105;BME280;38103;42.776;23.112;2022-08-11T02:31:55;94112.91;;;15.13;96.41
52105;BME280;38103;42.776;23.112;2022-08-11T02:42:34;94107.44;;;14.81;99.07
52105;BME280;38103;42.776;23.112;2022-08-11T02:48:07;94104.09;;;14.58;100.00
52105;BME280;38103;42.776;23.112;2022-08-11T02:53:58;94106.16;;;14.51;100.00
52105;BME280;38103;42.776;23.112;2022-08-11T02:56:47;94109.34;;;14.48;100.00
52105;BME280;38103;42.776;23.112;2022-08-11T03:04:49;94109.84;;;14.45;100.00
52105;BME280;38103;42.776;23.112;2022-08-11T03:10:24;94107.06;;;14.67;100.00
52105;BME280;38103;42.776;23.112;2022-08-11T03:16:17;94120.25;;;14.51;100.00
52105;BME280;38103;42.776;23.112;2022-08-11T03:25:04;94111.22;;;14.52;100.00
52105;BME280;38103;42.776;23.112;2022-08-11T03:27:38;94112.03;;;14.53;100.00
52105;BME280;38103;42.776;23.112;2022-08-11T03:30:15;94109.63;;;14.51;100.00
52105;BME280;38103;42.776;23.112;2022-08-11T03:33:08;94105.69;;;14.59;100.00
52105;BME280;38103;42.776;23.112;2022-08-11T03:41:35;94103.31;;;15.06;100.00
52105;BME280;38103;42.776;23.112;2022-08-11T03:53:34;94107.78;;;15.65;98.25
52105;BME280;38103;42.776;23.112;2022-08-11T03:56:25;94098.75;;;15.77;97.88
52105;BME280;38103;42.776;23.112;2022-08-11T04:08:08;94104.09;;;15.77;98.71
52105;BME280;38103;42.776;23.112;2022-08-11T04:13:44;94099.34;;;16.57;95.91
52105;BME280;38103;42.776;23.112;2022-08-11T04:22:34;94109.44;;;17.69;90.11
52105;BME280;38103;42.776;23.112;2022-08-11T04:36:09;94092.50;;;18.59;84.90
52105;BME280;38103;42.776;23.112;2022-08-11T04:39:26;94111.81;;;19.10;84.40
52105;BME280;38103;42.776;23.112;2022-08-11T04:47:40;94114.88;;;19.72;82.06
52105;BME280;38103;42.776;23.112;2022-08-11T04:53:33;94122.34;;;20.34;79.83
52105;BME280;38103;42.776;23.112;2022-08-11T04:56:27;94117.28;;;20.65;78.76
52105;BME280;38103;42.776;23.112;2022-08-11T05:02:46;94111.97;;;20.94;75.83
52105;BME280;38103;42.776;23.112;2022-08-11T05:09:33;94116.00;;;21.39;74.38
52105;BME280;38103;42.776;23.112;2022-08-11T05:14:29;94115.56;;;21.60;72.88
52105;BME280;38103;42.776;23.112;2022-08-11T05:17:22;94087.84;;;21.73;72.33
52105;BME280;38103;42.776;23.112;2022-08-11T05:20:11;94118.66;;;21.95;71.35
52105;BME280;38103;42.776;23.112;2022-08-11T05:22:59;94097.22;;;21.90;70.49
52105;BME280;38103;42.776;23.112;2022-08-11T05:25:46;94125.41;;;22.30;70.02
52105;BME280;38103;42.776;23.112;2022-08-11T05:28:34;94122.94;;;22.42;69.70
52105;BME280;38103;42.776;23.112;2022-08-11T05:31:35;94118.06;;;22.68;68.57
52105;BME280;38103;42.776;23.112;2022-08-11T05:34:28;94117.94;;;22.96;67.62
52105;BME280;38103;42.776;23.112;2022-08-11T05:39:50;94117.72;;;23.24;67.15
52105;BME280;38103;42.776;23.112;2022-08-11T05:42:42;94124.50;;;23.13;67.68
52105;BME280;38103;42.776;23.112;2022-08-11T05:45:33;94116.25;;;23.18;67.28
52105;BME280;38103;42.776;23.112;2022-08-11T05:48:17;94118.53;;;23.33;67.02
52105;BME280;38103;42.776;23.112;2022-08-11T05:51:02;94116.66;;;23.34;67.67
52105;BME280;38103;42.776;23.112;2022-08-11T05:53:55;94116.41;;;23.53;66.61
52105;BME280;38103;42.776;23.112;2022-08-11T05:57:00;94111.03;;;23.71;64.33
52105;BME280;38103;42.776;23.112;2022-08-11T05:59:26;94106.00;;;23.79;64.45
52105;BME280;38103;42.776;23.112;2022-08-11T06:01:59;94123.50;;;23.99;64.80
52105;BME280;38103;42.776;23.112;2022-08-11T06:04:25;94122.69;;;24.16;64.88
52105;BME280;38103;42.776;23.112;2022-08-11T06:10:05;94128.09;;;24.52;64.29
52105;BME280;38103;42.776;23.112;2022-08-11T06:12:22;94105.06;;;24.54;61.10
52105;BME280;38103;42.776;23.112;2022-08-11T06:14:55;94126.69;;;24.63;61.82
52105;BME280;38103;42.776;23.112;2022-08-11T06:17:26;94124.28;;;24.71;61.25
52105;BME280;38103;42.776;23.112;2022-08-11T06:20:02;94121.69;;;24.83;61.35
52105;BME280;38103;42.776;23.112;2022-08-11T06:22:29;94095.28;;;24.80;59.93
52105;BME280;38103;42.776;23.112;2022-08-11T06:24:57;94095.88;;;24.95;61.43
52105;BME280;38103;42.776;23.112;2022-08-11T06:27:25;94113.50;;;25.19;60.89
52105;BME280;38103;42.776;23.112;2022-08-11T06:29:54;94112.31;;;25.38;59.48
52105;BME280;38103;42.776;23.112;2022-08-11T06:32:24;94110.63;;;25.54;59.90
52105;BME280;38103;42.776;23.112;2022-08-11T06:40:19;94081.88;;;25.71;58.58
52105;BME280;38103;42.776;23.112;2022-08-11T06:42:56;94112.84;;;26.13;59.32
52105;BME280;38103;42.776;23.112;2022-08-11T06:45:32;94116.41;;;26.05;57.01
52105;BME280;38103;42.776;23.112;2022-08-11T06:48:00;94111.97;;;25.70;58.42
52105;BME280;38103;42.776;23.112;2022-08-11T06:50:28;94134.25;;;25.45;59.16
52105;BME280;38103;42.776;23.112;2022-08-11T06:53:16;94129.91;;;25.14;59.45
52105;BME280;38103;42.776;23.112;2022-08-11T06:55:44;94135.09;;;24.71;61.77
52105;BME280;38103;42.776;23.112;2022-08-11T06:58:47;94140.03;;;24.42;62.63
52105;BME280;38103;42.776;23.112;2022-08-11T07:01:40;94133.34;;;24.48;63.22
52105;BME280;38103;42.776;23.112;2022-08-11T07:04:13;94133.66;;;24.64;63.91
52105;BME280;38103;42.776;23.112;2022-08-11T07:23:22;94113.75;;;25.74;58.01
52105;BME280;38103;42.776;23.112;2022-08-11T07:26:07;94131.47;;;26.15;57.23
52105;BME280;38103;42.776;23.112;2022-08-11T07:28:53;94129.72;;;26.31;56.74
52105;BME280;38103;42.776;23.112;2022-08-11T07:31:32;94128.16;;;26.52;52.62
52105;BME280;38103;42.776;23.112;2022-08-11T07:36:45;94125.78;;;26.50;55.83
52105;BME280;38103;42.776;23.112;2022-08-11T07:39:19;94128.28;;;26.34;58.26
52105;BME280;38103;42.776;23.112;2022-08-11T07:41:46;94127.22;;;26.26;56.57
52105;BME280;38103;42.776;23.112;2022-08-11T07:44:14;94106.75;;;26.16;56.96
52105;BME280;38103;42.776;23.112;2022-08-11T07:46:42;94127.38;;;26.30;57.72
52105;BME280;38103;42.776;23.112;2022-08-11T07:49:30;94136.06;;;26.57;56.31
52105;BME280;38103;42.776;23.112;2022-08-11T07:52:15;94125.22;;;26.57;56.06
52105;BME280;38103;42.776;23.112;2022-08-11T07:55:12;94126.00;;;26.79;54.62
52105;BME280;38103;42.776;23.112;2022-08-11T07:57:39;94123.75;;;26.94;53.45
52105;BME280;38103;42.776;23.112;2022-08-11T08:00:23;94120.66;;;27.29;53.93
52105;BME280;38103;42.776;23.112;2022-08-11T08:03:07;94123.56;;;27.11;54.83
52105;BME280;38103;42.776;23.112;2022-08-11T08:05:52;94128.31;;;27.02;53.93
52105;BME280;38103;42.776;23.112;2022-08-11T08:08:36;94099.06;;;26.61;54.38
52105;BME280;38103;42.776;23.112;2022-08-11T08:11:23;94123.06;;;26.84;53.75
52105;BME280;38103;42.776;23.112;2022-08-11T08:14:09;94097.59;;;26.42;53.37
52105;BME280;38103;42.776;23.112;2022-08-11T08:16:55;94132.94;;;27.02;51.47
52105;BME280;38103;42.776;23.112;2022-08-11T08:19:42;94127.63;;;27.05;48.86
52105;BME280;38103;42.776;23.112;2022-08-11T08:22:10;94127.91;;;27.13;50.80
52105;BME280;38103;42.776;23.112;2022-08-11T08:24:39;94118.44;;;27.31;49.00
52105;BME280;38103;42.776;23.112;2022-08-11T08:27:07;94104.97;;;27.22;50.09
52105;BME280;38103;42.776;23.112;2022-08-11T08:29:36;94111.63;;;27.13;51.13
52105;BME280;38103;42.776;23.112;2022-08-11T08:32:20;94118.34;;;26.94;51.76
52105;BME280;38103;42.776;23.112;2022-08-11T08:34:48;94108.44;;;27.10;52.54
52105;BME280;38103;42.776;23.112;2022-08-11T08:37:17;94117.28;;;27.20;50.52
52105;BME280;38103;42.776;23.112;2022-08-11T08:39:47;94124.31;;;27.21;52.09
52105;BME280;38103;42.776;23.112;2022-08-11T08:42:17;94103.31;;;26.96;52.47
52105;BME280;38103;42.776;23.112;2022-08-11T08:44:46;94119.69;;;26.87;51.08
52105;BME280;38103;42.776;23.112;2022-08-11T08:47:17;94116.63;;;26.89;51.64
52105;BME280;38103;42.776;23.112;2022-08-11T08:49:48;94116.75;;;26.80;51.27
52105;BME280;38103;42.776;23.112;2022-08-11T08:52:17;94117.16;;;26.70;50.77
52105;BME280;38103;42.776;23.112;2022-08-11T08:54:45;94115.31;;;26.61;53.34
52105;BME280;38103;42.776;23.112;2022-08-11T08:57:13;94117.72;;;26.41;54.86
52105;BME280;38103;42.776;23.112;2022-08-11T08:59:44;94118.66;;;26.46;52.57
52105;BME280;38103;42.776;23.112;2022-08-11T09:02:11;94109.50;;;26.29;55.67
52105;BME280;38103;42.776;23.112;2022-08-11T09:04:39;94115.34;;;25.97;54.95
52105;BME280;38103;42.776;23.112;2022-08-11T09:07:09;94096.13;;;25.89;55.87
52105;BME280;38103;42.776;23.112;2022-08-11T09:09:42;94107.13;;;26.06;52.50
52105;BME280;38103;42.776;23.112;2022-08-11T09:12:10;94105.34;;;25.88;56.70
52105;BME280;38103;42.776;23.112;2022-08-11T09:14:39;94102.09;;;25.95;56.25
52105;BME280;38103;42.776;23.112;2022-08-11T09:17:25;94070.09;;;25.67;53.94
52105;BME280;38103;42.776;23.112;2022-08-11T09:19:54;94103.75;;;25.87;57.46
52105;BME280;38103;42.776;23.112;2022-08-11T09:22:23;94100.66;;;25.98;55.26
52105;BME280;38103;42.776;23.112;2022-08-11T09:25:08;94095.09;;;26.16;55.07
52105;BME280;38103;42.776;23.112;2022-08-11T09:27:53;94095.44;;;26.14;55.59
52105;BME280;38103;42.776;23.112;2022-08-11T09:30:23;94098.75;;;25.98;55.66
52105;BME280;38103;42.776;23.112;2022-08-11T09:32:57;94100.41;;;25.91;55.58
52105;BME280;38103;42.776;23.112;2022-08-11T09:35:30;94096.28;;;26.06;55.43
52105;BME280;38103;42.776;23.112;2022-08-11T09:37:57;94101.00;;;25.96;54.00
52105;BME280;38103;42.776;23.112;2022-08-11T09:40:47;94090.88;;;26.06;53.65
52105;BME280;38103;42.776;23.112;2022-08-11T09:43:16;94087.25;;;26.02;50.78
52105;BME280;38103;42.776;23.112;2022-08-11T09:46:04;94089.06;;;25.97;54.65
52105;BME280;38103;42.776;23.112;2022-08-11T09:48:35;94085.41;;;25.93;54.76
52105;BME280;38103;42.776;23.112;2022-08-11T09:51:01;94087.47;;;25.96;56.15
52105;BME280;38103;42.776;23.112;2022-08-11T09:53:31;94066.25;;;25.98;54.03
52105;BME280;38103;42.776;23.112;2022-08-11T09:55:57;94071.84;;;26.15;55.02
52105;BME280;38103;42.776;23.112;2022-08-11T09:58:23;94072.41;;;26.08;53.37
52105;BME280;38103;42.776;23.112;2022-08-11T10:00:50;94074.81;;;26.00;55.40
52105;BME280;38103;42.776;23.112;2022-08-11T10:03:21;94070.56;;;25.99;51.56
52105;BME280;38103;42.776;23.112;2022-08-11T10:05:50;94065.94;;;26.00;51.69
52105;BME280;38103;42.776;23.112;2022-08-11T10:08:40;94072.50;;;25.90;54.05
52105;BME280;38103;42.776;23.112;2022-08-11T10:11:15;94061.00;;;25.72;53.64
52105;BME280;38103;42.776;23.112;2022-08-11T10:13:45;94052.50;;;25.30;52.97
52105;BME280;38103;42.776;23.112;2022-08-11T10:16:34;94051.28;;;25.19;55.06
52105;BME280;38103;42.776;23.112;2022-08-11T10:19:02;94036.75;;;25.24;54.27
52105;BME280;38103;42.776;23.112;2022-08-11T10:24:01;94063.22;;;25.48;52.68
52105;BME280;38103;42.776;23.112;2022-08-11T10:26:47;94065.59;;;25.50;51.59
52105;BME280;38103;42.776;23.112;2022-08-11T10:29:29;94063.50;;;25.55;50.34
52105;BME280;38103;42.776;23.112;2022-08-11T10:32:18;94073.47;;;25.33;50.73
52105;BME280;38103;42.776;23.112;2022-08-11T10:35:03;94071.25;;;25.36;53.15
52105;BME280;38103;42.776;23.112;2022-08-11T10:37:31;94038.22;;;25.21;49.58
52105;BME280;38103;42.776;23.112;2022-08-11T10:40:02;94074.94;;;25.61;51.72
52105;BME280;38103;42.776;23.112;2022-08-11T10:42:28;94062.75;;;25.76;49.22
52105;BME280;38103;42.776;23.112;2022-08-11T10:45:13;94065.00;;;25.74;50.32
52105;BME280;38103;42.776;23.112;2022-08-11T10:47:58;94057.22;;;25.94;49.11
52105;BME280;38103;42.776;23.112;2022-08-11T10:50:24;94006.72;;;25.68;48.09
52105;BME280;38103;42.776;23.112;2022-08-11T10:53:10;94047.69;;;25.88;49.60
52105;BME280;38103;42.776;23.112;2022-08-11T10:55:56;94050.34;;;25.97;47.79
52105;BME280;38103;42.776;23.112;2022-08-11T10:58:41;94027.41;;;25.94;47.44
52105;BME280;38103;42.776;23.112;2022-08-11T11:01:37;94037.19;;;26.08;45.62
52105;BME280;38103;42.776;23.112;2022-08-11T11:09:18;94029.66;;;26.48;43.35
52105;BME280;38103;42.776;23.112;2022-08-11T11:11:53;94025.25;;;26.55;41.39
52105;BME280;38103;42.776;23.112;2022-08-11T11:14:40;94020.75;;;26.60;42.61
52105;BME280;38103;42.776;23.112;2022-08-11T11:17:37;94022.22;;;26.57;44.03
52105;BME280;38103;42.776;23.112;2022-08-11T11:20:37;94023.63;;;26.42;43.99
52105;BME280;38103;42.776;23.112;2022-08-11T11:23:11;94026.19;;;26.26;44.93
52105;BME280;38103;42.776;23.112;2022-08-11T11:31:09;94013.06;;;26.15;40.23
52105;BME280;38103;42.776;23.112;2022-08-11T11:38:42;94019.13;;;26.12;40.39
52105;BME280;38103;42.776;23.112;2022-08-11T11:41:08;94021.44;;;26.22;41.03
52105;BME280;38103;42.776;23.112;2022-08-11T11:43:50;94010.63;;;26.35;41.72
52105;BME280;38103;42.776;23.112;2022-08-11T11:46:16;94003.44;;;26.52;41.04
52105;BME280;38103;42.776;23.112;2022-08-11T11:48:42;94007.75;;;26.53;39.67
52105;BME280;38103;42.776;23.112;2022-08-11T11:51:08;94009.88;;;26.47;38.88
52105;BME280;38103;42.776;23.112;2022-08-11T11:53:41;94011.63;;;26.64;39.39
52105;BME280;38103;42.776;23.112;2022-08-11T11:56:08;94002.78;;;26.55;37.38
52105;BME280;38103;42.776;23.112;2022-08-11T11:58:34;94004.59;;;26.63;38.55
52105;BME280;38103;42.776;23.112;2022-08-11T12:01:20;94005.72;;;26.50;38.00
52105;BME280;38103;42.776;23.112;2022-08-11T12:03:51;93999.06;;;26.60;36.17
52105;BME280;38103;42.776;23.112;2022-08-11T12:06:19;93999.06;;;26.60;38.56
52105;BME280;38103;42.776;23.112;2022-08-11T12:08:48;93995.59;;;26.72;38.16
52105;BME280;38103;42.776;23.112;2022-08-11T12:11:15;93991.72;;;26.73;39.28
52105;BME280;38103;42.776;23.112;2022-08-11T12:14:02;93990.16;;;26.72;39.26
52105;BME280;38103;42.776;23.112;2022-08-11T12:16:29;93984.53;;;26.89;38.91
52105;BME280;38103;42.776;23.112;2022-08-11T12:18:58;93915.00;;;26.47;39.28
52105;BME280;38103;42.776;23.112;2022-08-11T12:21:25;93929.38;;;26.60;39.04
52105;BME280;38103;42.776;23.112;2022-08-11T12:23:52;93970.16;;;27.02;38.00
52105;BME280;38103;42.776;23.112;2022-08-11T12:26:38;93973.81;;;27.18;37.21
52105;BME280;38103;42.776;23.112;2022-08-11T12:29:13;93974.56;;;27.19;37.10
52105;BME280;38103;42.776;23.112;2022-08-11T12:31:40;93976.16;;;27.20;35.94
52105;BME280;38103;42.776;23.112;2022-08-11T12:34:10;93977.28;;;27.31;35.53
52105;BME280;38103;42.776;23.112;2022-08-11T12:36:41;93967.66;;;27.21;37.51
52105;BME280;38103;42.776;23.112;2022-08-11T12:39:12;93933.84;;;27.06;37.27
52105;BME280;38103;42.776;23.112;2022-08-11T12:41:44;93965.97;;;27.42;38.40
52105;BME280;38103;42.776;23.112;2022-08-11T12:44:29;93960.56;;;27.17;34.57
52105;BME280;38103;42.776;23.112;2022-08-11T12:47:22;93942.22;;;27.01;37.16
52105;BME280;38103;42.776;23.112;2022-08-11T12:49:48;93968.13;;;26.98;40.07
52105;BME280;38103;42.776;23.112;2022-08-11T12:52:43;93974.00;;;26.75;40.90
52105;BME280;38103;42.776;23.112;2022-08-11T12:55:12;93962.16;;;26.93;37.01
52105;BME280;38103;42.776;23.112;2022-08-11T12:57:59;93958.66;;;26.80;36.57
52105;BME280;38103;42.776;23.112;2022-08-11T13:00:42;93956.91;;;26.50;41.07
52105;BME280;38103;42.776;23.112;2022-08-11T13:03:26;93953.72;;;26.35;40.56
52105;BME280;38103;42.776;23.112;2022-08-11T13:06:11;93952.44;;;25.86;42.00
52105;BME280;38103;42.776;23.112;2022-08-11T13:08:38;93959.97;;;25.59;42.94
52105;BME280;38103;42.776;23.112;2022-08-11T13:11:06;93946.41;;;25.16;44.27
52105;BME280;38103;42.776;23.112;2022-08-11T13:13:52;93945.13;;;24.92;43.50
52105;BME280;38103;42.776;23.112;2022-08-11T13:16:22;93959.56;;;25.26;43.97
52105;BME280;38103;42.776;23.112;2022-08-11T13:18:48;93957.63;;;25.05;44.11
52105;BME280;38103;42.776;23.112;2022-08-11T13:21:15;93954.06;;;24.83;44.53
52105;BME280;38103;42.776;23.112;2022-08-11T13:23:41;93955.03;;;24.39;45.93
52105;BME280;38103;42.776;23.112;2022-08-11T13:26:07;93958.03;;;24.47;49.23
52105;BME280;38103;42.776;23.112;2022-08-11T13:28:37;93955.22;;;24.34;50.79
52105;BME280;38103;42.776;23.112;2022-08-11T13:31:05;93948.31;;;23.80;51.45
52105;BME280;38103;42.776;23.112;2022-08-11T13:33:49;93953.72;;;23.80;53.65
52105;BME280;38103;42.776;23.112;2022-08-11T13:36:21;93952.78;;;23.58;53.87
52105;BME280;38103;42.776;23.112;2022-08-11T13:38:52;93953.72;;;23.62;53.26
52105;BME280;38103;42.776;23.112;2022-08-11T13:41:19;93953.06;;;23.29;54.26
52105;BME280;38103;42.776;23.112;2022-08-11T13:44:08;93960.63;;;23.09;54.00
52105;BME280;38103;42.776;23.112;2022-08-11T13:46:35;93953.03;;;23.12;54.23
52105;BME280;38103;42.776;23.112;2022-08-11T13:49:01;93946.63;;;22.90;53.66
52105;BME280;38103;42.776;23.112;2022-08-11T13:51:27;93959.06;;;23.08;54.81
52105;BME280;38103;42.776;23.112;2022-08-11T13:54:04;93952.69;;;23.04;54.68
52105;BME280;38103;42.776;23.112;2022-08-11T13:56:32;93910.94;;;22.75;54.70
52105;BME280;38103;42.776;23.112;2022-08-11T13:58:59;93954.47;;;23.27;54.32
52105;BME280;38103;42.776;23.112;2022-08-11T14:01:31;93949.84;;;23.09;54.75
52105;BME280;38103;42.776;23.112;2022-08-11T14:04:03;93958.44;;;23.12;53.99
52105;BME280;38103;42.776;23.112;2022-08-11T14:06:30;93953.19;;;23.15;54.00
52105;BME280;38103;42.776;23.112;2022-08-11T14:08:56;93919.72;;;23.07;54.04
52105;BME280;38103;42.776;23.112;2022-08-11T14:11:23;93948.28;;;23.26;53.63
52105;BME280;38103;42.776;23.112;2022-08-11T14:14:12;93946.22;;;23.23;52.67
52105;BME280;38103;42.776;23.112;2022-08-11T14:16:42;93909.91;;;23.12;52.00
52105;BME280;38103;42.776;23.112;2022-08-11T14:19:11;93965.28;;;23.44;51.85
52105;BME280;38103;42.776;23.112;2022-08-11T14:21:41;93949.84;;;23.27;51.40
52105;BME280;38103;42.776;23.112;2022-08-11T14:24:26;93953.06;;;23.29;51.83
52105;BME280;38103;42.776;23.112;2022-08-11T14:26:53;93955.44;;;23.31;51.46
52105;BME280;38103;42.776;23.112;2022-08-11T14:29:20;93954.31;;;23.41;51.93
52105;BME280;38103;42.776;23.112;2022-08-11T14:31:49;93954.97;;;23.29;51.92
52105;BME280;38103;42.776;23.112;2022-08-11T14:34:17;93951.63;;;23.23;51.70
52105;BME280;38103;42.776;23.112;2022-08-11T14:36:49;93953.84;;;23.39;51.33
52105;BME280;38103;42.776;23.112;2022-08-11T14:39:17;93949.75;;;23.50;51.23
52105;BME280;38103;42.776;23.112;2022-08-11T14:41:47;93953.84;;;23.48;50.95
52105;BME280;38103;42.776;23.112;2022-08-11T14:44:34;93955.28;;;23.45;51.20
52105;BME280;38103;42.776;23.112;2022-08-11T14:47:19;93932.75;;;23.41;50.64
52105;BME280;38103;42.776;23.112;2022-08-11T14:49:46;93950.88;;;23.49;50.68
52105;BME280;38103;42.776;23.112;2022-08-11T14:52:15;93942.63;;;23.54;50.57
52105;BME280;38103;42.776;23.112;2022-08-11T14:54:47;93950.22;;;23.70;50.05
52105;BME280;38103;42.776;23.112;2022-08-11T14:57:35;93940.03;;;23.85;50.28
52105;BME280;38103;42.776;23.112;2022-08-11T15:00:03;93935.91;;;23.96;49.61
52105;BME280;38103;42.776;23.112;2022-08-11T15:02:33;93931.13;;;24.02;50.10
52105;BME280;38103;42.776;23.112;2022-08-11T15:05:19;93928.56;;;24.06;49.13
52105;BME280;38103;42.776;23.112;2022-08-11T15:07:45;93930.47;;;24.14;49.28
52105;BME280;38103;42.776;23.112;2022-08-11T15:10:11;93900.63;;;24.02;49.92
52105;BME280;38103;42.776;23.112;2022-08-11T15:12:39;93882.56;;;23.93;48.42
52105;BME280;38103;42.776;23.112;2022-08-11T15:15:07;93934.56;;;24.20;49.50
52105;BME280;38103;42.776;23.112;2022-08-11T15:17:53;93932.69;;;24.30;49.99
52105;BME280;38103;42.776;23.112;2022-08-11T15:20:20;93933.59;;;24.34;49.80
52105;BME280;38103;42.776;23.112;2022-08-11T15:23:04;93930.50;;;23.96;50.25
52105;BME280;38103;42.776;23.112;2022-08-11T15:25:52;93939.41;;;23.88;50.03
52105;BME280;38103;42.776;23.112;2022-08-11T15:28:20;93937.50;;;23.88;48.72
52105;BME280;38103;42.776;23.112;2022-08-11T15:31:06;93940.03;;;23.85;48.31
52105;BME280;38103;42.776;23.112;2022-08-11T15:33:53;93926.44;;;23.54;50.18
52105;BME280;38103;42.776;23.112;2022-08-11T15:36:39;93939.44;;;23.52;50.30
52105;BME280;38103;42.776;23.112;2022-08-11T15:39:31;93932.13;;;23.44;50.27
52105;BME280;38103;42.776;23.112;2022-08-11T15:42:12;93931.78;;;23.37;50.85
52105;BME280;38103;42.776;23.112;2022-08-11T15:45:08;93935.44;;;23.23;50.41
52105;BME280;38103;42.776;23.112;2022-08-11T15:48:00;93937.63;;;23.12;50.76
52105;BME280;38103;42.776;23.112;2022-08-11T15:50:29;93941.28;;;23.07;51.13
52105;BME280;38103;42.776;23.112;2022-08-11T15:53:02;93943.19;;;23.16;51.10
52105;BME280;38103;42.776;23.112;2022-08-11T15:55:30;93933.34;;;23.20;50.72
52105;BME280;38103;42.776;23.112;2022-08-11T15:58:01;93937.81;;;23.33;50.07
52105;BME280;38103;42.776;23.112;2022-08-11T16:00:48;93940.03;;;23.31;50.32
52105;BME280;38103;42.776;23.112;2022-08-11T16:03:40;93941.47;;;23.29;51.01
52105;BME280;38103;42.776;23.112;2022-08-11T16:06:25;93928.94;;;23.24;51.57
52105;BME280;38103;42.776;23.112;2022-08-11T16:08:52;93947.66;;;23.29;50.70
52105;BME280;38103;42.776;23.112;2022-08-11T16:11:21;93950.34;;;23.20;50.63
52105;BME280;38103;42.776;23.112;2022-08-11T16:13:47;93947.00;;;23.15;51.35
52105;BME280;38103;42.776;23.112;2022-08-11T16:16:33;93955.88;;;23.06;51.55
52105;BME280;38103;42.776;23.112;2022-08-11T16:19:00;93952.03;;;22.90;51.75
52105;BME280;38103;42.776;23.112;2022-08-11T16:21:32;93950.38;;;22.71;51.91
52105;BME280;38103;42.776;23.112;2022-08-11T16:23:59;93949.41;;;22.66;52.63
52105;BME280;38103;42.776;23.112;2022-08-11T16:26:26;93951.00;;;22.68;51.10
52105;BME280;38103;42.776;23.112;2022-08-11T16:28:55;93878.03;;;22.05;51.48
52105;BME280;38103;42.776;23.112;2022-08-11T16:31:23;93938.56;;;22.49;51.34
52105;BME280;38103;42.776;23.112;2022-08-11T16:33:51;93945.88;;;22.57;51.42
52105;BME280;38103;42.776;23.112;2022-08-11T16:36:19;93939.53;;;22.53;52.12
52105;BME280;38103;42.776;23.112;2022-08-11T16:39:04;93944.41;;;22.42;52.25
52105;BME280;38103;42.776;23.112;2022-08-11T16:41:33;93945.38;;;22.46;52.30
52105;BME280;38103;42.776;23.112;2022-08-11T16:44:19;93952.50;;;22.42;52.19
52105;BME280;38103;42.776;23.112;2022-08-11T16:47:09;93946.31;;;22.41;52.81
52105;BME280;38103;42.776;23.112;2022-08-11T16:49:48;93943.47;;;22.47;52.63
52105;BME280;38103;42.776;23.112;2022-08-11T16:52:14;93955.69;;;22.53;52.57
52105;BME280;38103;42.776;23.112;2022-08-11T16:54:41;93952.19;;;22.52;51.55
52105;BME280;38103;42.776;23.112;2022-08-11T16:57:23;93964.53;;;22.44;51.99
52105;BME280;38103;42.776;23.112;2022-08-11T17:00:09;93965.78;;;22.38;51.66
52105;BME280;38103;42.776;23.112;2022-08-11T17:02:41;93967.56;;;22.20;51.60
52105;BME280;38103;42.776;23.112;2022-08-11T17:05:29;93971.19;;;22.15;51.83
52105;BME280;38103;42.776;23.112;2022-08-11T17:08:16;93981.00;;;22.11;52.38
52105;BME280;38103;42.776;23.112;2022-08-11T17:11:02;93885.69;;;21.66;52.31